sensor_id;sensor_type;location;lat;lon;timestamp;temperature;humidity
26479;DHT22;14163;-26.142;27.992;2024-03-02T00:01:58;23.80;99.90
26479;DHT22;14163;-26.142;27.992;2024-03-02T00:04:28;23.70;99.90
26479;DHT22;14163;-26.142;27.992;2024-03-02T00:06:57;23.60;99.90
26479;DHT22;14163;-26.142;27.992;2024-03-02T00:09:26;23.60;99.90
26479;DHT22;14163;-26.142;27.992;2024-03-02T00:11:55;23.50;99.90
26479;DHT22;14163;-26.142;27.992;2024-03-02T00:14:29;23.50;99.90
26479;DHT22;14163;-26.142;27.992;2024-03-02T00:16:59;23.60;99.90
26479;DHT22;14163;-26.142;27.992;2024-03-02T00:19:29;23.60;99.90
26479;DHT22;14163;-26.142;27.992;2024-03-02T00:22:01;23.70;99.90
26479;DHT22;14163;-26.142;27.992;2024-03-02T00:24:33;23.70;99.90
26479;DHT22;14163;-26.142;27.992;2024-03-02T00:27:04;23.70;99.90
26479;DHT22;14163;-26.142;27.992;2024-03-02T00:29:36;23.70;99.90
26479;DHT22;14163;-26.142;27.992;2024-03-02T00:32:10;23.80;99.90
26479;DHT22;14163;-26.142;27.992;2024-03-02T00:34:41;23.80;99.90
26479;DHT22;14163;-26.142;27.992;2024-03-02T00:37:11;23.90;99.90
26479;DHT22;14163;-26.142;27.992;2024-03-02T00:39:40;23.70;99.90
26479;DHT22;14163;-26.142;27.992;2024-03-02T00:42:11;23.50;99.90
26479;DHT22;14163;-26.142;27.992;2024-03-02T00:44:42;23.40;99.90
26479;DHT22;14163;-26.142;27.992;2024-03-02T00:47:11;23.40;99.90
26479;DHT22;14163;-26.142;27.992;2024-03-02T00:49:41;23.30;99.90
26479;DHT22;14163;-26.142;27.992;2024-03-02T00:52:10;23.50;99.90
26479;DHT22;14163;-26.142;27.992;2024-03-02T00:54:40;23.70;99.90
26479;DHT22;14163;-26.142;27.992;2024-03-02T00:57:11;23.70;99.90
26479;DHT22;14163;-26.142;27.992;2024-03-02T00:59:43;23.70;99.90
26479;DHT22;14163;-26.142;27.992;2024-03-02T01:02:13;23.70;99.90
26479;DHT22;14163;-26.142;27.992;2024-03-02T01:04:42;23.90;99.90
26479;DHT22;14163;-26.142;27.992;2024-03-02T01:07:11;23.90;99.90
26479;DHT22;14163;-26.142;27.992;2024-03-02T01:09:40;24.10;99.90
26479;DHT22;14163;-26.142;27.992;2024-03-02T01:12:09;23.90;99.90
26479;DHT22;14163;-26.142;27.992;2024-03-02T01:14:39;23.90;99.90
26479;DHT22;14163;-26.142;27.992;2024-03-02T01:17:10;23.90;99.90
26479;DHT22;14163;-26.142;27.992;2024-03-02T01:19:39;24.00;99.90
26479;DHT22;14163;-26.142;27.992;2024-03-02T01:22:10;24.00;99.90
26479;DHT22;14163;-26.142;27.992;2024-03-02T01:24:39;24.10;99.90
26479;DHT22;14163;-26.142;27.992;2024-03-02T01:27:08;24.30;99.90
26479;DHT22;14163;-26.142;27.992;2024-03-02T01:29:39;24.50;99.90
26479;DHT22;14163;-26.142;27.992;2024-03-02T01:32:10;24.50;99.90
26479;DHT22;14163;-26.142;27.992;2024-03-02T01:34:39;24.50;99.90
26479;DHT22;14163;-26.142;27.992;2024-03-02T01:37:08;24.40;99.90
26479;DHT22;14163;-26.142;27.992;2024-03-02T01:39:38;24.20;99.90
26479;DHT22;14163;-26.142;27.992;2024-03-02T01:42:07;24.00;99.90
26479;DHT22;14163;-26.142;27.992;2024-03-02T01:44:37;23.90;99.90
26479;DHT22;14163;-26.142;27.992;2024-03-02T01:47:06;24.00;99.90
26479;DHT22;14163;-26.142;27.992;2024-03-02T01:49:37;24.10;99.90
26479;DHT22;14163;-26.142;27.992;2024-03-02T01:52:08;24.00;99.90
26479;DHT22;14163;-26.142;27.992;2024-03-02T01:54:38;23.90;99.90
26479;DHT22;14163;-26.142;27.992;2024-03-02T01:57:07;23.60;99.90
26479;DHT22;14163;-26.142;27.992;2024-03-02T01:59:36;23.30;99.90
26479;DHT22;14163;-26.142;27.992;2024-03-02T02:02:05;23.30;99.90
26479;DHT22;14163;-26.142;27.992;2024-03-02T02:04:36;23.40;99.90
26479;DHT22;14163;-26.142;27.992;2024-03-02T02:07:05;23.50;99.90
26479;DHT22;14163;-26.142;27.992;2024-03-02T02:09:35;23.70;99.90
26479;DHT22;14163;-26.142;27.992;2024-03-02T02:12:04;23.80;99.90
26479;DHT22;14163;-26.142;27.992;2024-03-02T02:14:35;23.90;99.90
26479;DHT22;14163;-26.142;27.992;2024-03-02T02:17:06;23.70;99.90
26479;DHT22;14163;-26.142;27.992;2024-03-02T02:19:37;23.60;99.90
26479;DHT22;14163;-26.142;27.992;2024-03-02T02:22:08;23.80;99.90
26479;DHT22;14163;-26.142;27.992;2024-03-02T02:24:40;23.70;99.90
26479;DHT22;14163;-26.142;27.992;2024-03-02T02:27:10;23.70;99.90
26479;DHT22;14163;-26.142;27.992;2024-03-02T02:29:41;23.70;99.90
26479;DHT22;14163;-26.142;27.992;2024-03-02T02:32:10;23.70;99.90
26479;DHT22;14163;-26.142;27.992;2024-03-02T02:34:39;23.50;99.90
26479;DHT22;14163;-26.142;27.992;2024-03-02T02:37:10;23.50;99.90
26479;DHT22;14163;-26.142;27.992;2024-03-02T02:39:39;23.40;99.90
26479;DHT22;14163;-26.142;27.992;2024-03-02T02:42:08;23.20;99.90
26479;DHT22;14163;-26.142;27.992;2024-03-02T02:44:37;23.10;99.90
26479;DHT22;14163;-26.142;27.992;2024-03-02T02:47:07;22.90;99.90
26479;DHT22;14163;-26.142;27.992;2024-03-02T02:49:36;22.80;99.90
26479;DHT22;14163;-26.142;27.992;2024-03-02T02:52:05;22.60;99.90
26479;DHT22;14163;-26.142;27.992;2024-03-02T02:54:38;22.60;99.90
26479;DHT22;14163;-26.142;27.992;2024-03-02T02:57:07;22.50;99.90
26479;DHT22;14163;-26.142;27.992;2024-03-02T02:59:36;22.40;99.90
26479;DHT22;14163;-26.142;27.992;2024-03-02T03:02:05;22.30;99.90
26479;DHT22;14163;-26.142;27.992;2024-03-02T03:04:34;22.10;99.90
26479;DHT22;14163;-26.142;27.992;2024-03-02T03:07:04;22.10;99.90
26479;DHT22;14163;-26.142;27.992;2024-03-02T03:09:35;22.00;99.90
26479;DHT22;14163;-26.142;27.992;2024-03-02T03:12:06;22.10;99.90
26479;DHT22;14163;-26.142;27.992;2024-03-02T03:14:35;22.00;99.90
26479;DHT22;14163;-26.142;27.992;2024-03-02T03:17:04;22.40;99.90
26479;DHT22;14163;-26.142;27.992;2024-03-02T03:19:35;22.30;99.90
26479;DHT22;14163;-26.142;27.992;2024-03-02T03:22:04;22.20;99.90
26479;DHT22;14163;-26.142;27.992;2024-03-02T03:24:35;22.30;99.90
26479;DHT22;14163;-26.142;27.992;2024-03-02T03:27:04;22.20;99.90
26479;DHT22;14163;-26.142;27.992;2024-03-02T03:29:33;22.30;99.90
26479;DHT22;14163;-26.142;27.992;2024-03-02T03:32:03;22.40;99.90
26479;DHT22;14163;-26.142;27.992;2024-03-02T03:34:33;22.60;99.90
26479;DHT22;14163;-26.142;27.992;2024-03-02T03:37:03;22.70;99.90
26479;DHT22;14163;-26.142;27.992;2024-03-02T03:39:35;22.80;99.90
26479;DHT22;14163;-26.142;27.992;2024-03-02T03:42:04;22.80;99.90
26479;DHT22;14163;-26.142;27.992;2024-03-02T03:44:34;22.90;99.90
26479;DHT22;14163;-26.142;27.992;2024-03-02T03:47:03;23.00;99.90
26479;DHT22;14163;-26.142;27.992;2024-03-02T03:49:32;23.00;99.90
26479;DHT22;14163;-26.142;27.992;2024-03-02T03:52:01;23.10;99.90
26479;DHT22;14163;-26.142;27.992;2024-03-02T03:54:30;23.10;99.90
26479;DHT22;14163;-26.142;27.992;2024-03-02T03:57:01;23.20;99.90
26479;DHT22;14163;-26.142;27.992;2024-03-02T03:59:30;23.10;99.90
26479;DHT22;14163;-26.142;27.992;2024-03-02T04:01:59;23.00;99.90
26479;DHT22;14163;-26.142;27.992;2024-03-02T04:04:29;22.80;99.90
26479;DHT22;14163;-26.142;27.992;2024-03-02T04:06:58;22.90;99.90
26479;DHT22;14163;-26.142;27.992;2024-03-02T04:09:27;22.90;99.90
26479;DHT22;14163;-26.142;27.992;2024-03-02T04:11:57;22.70;99.90
26479;DHT22;14163;-26.142;27.992;2024-03-02T04:14:27;22.50;99.90
26479;DHT22;14163;-26.142;27.992;2024-03-02T04:16:56;22.40;99.90
26479;DHT22;14163;-26.142;27.992;2024-03-02T04:19:25;22.50;99.90
26479;DHT22;14163;-26.142;27.992;2024-03-02T04:21:55;22.60;99.90
26479;DHT22;14163;-26.142;27.992;2024-03-02T04:24:24;22.70;99.90
26479;DHT22;14163;-26.142;27.992;2024-03-02T04:26:53;22.90;99.90
26479;DHT22;14163;-26.142;27.992;2024-03-02T04:29:22;23.00;99.90
26479;DHT22;14163;-26.142;27.992;2024-03-02T04:31:53;23.10;99.90
26479;DHT22;14163;-26.142;27.992;2024-03-02T04:34:22;23.10;99.90
26479;DHT22;14163;-26.142;27.992;2024-03-02T04:36:51;22.70;99.90
26479;DHT22;14163;-26.142;27.992;2024-03-02T04:39:20;22.60;99.90
26479;DHT22;14163;-26.142;27.992;2024-03-02T04:41:49;22.40;99.90
26479;DHT22;14163;-26.142;27.992;2024-03-02T04:44:19;22.40;99.90
26479;DHT22;14163;-26.142;27.992;2024-03-02T04:46:48;22.20;99.90
26479;DHT22;14163;-26.142;27.992;2024-03-02T04:49:18;21.90;99.90
26479;DHT22;14163;-26.142;27.992;2024-03-02T04:51:48;21.70;99.90
26479;DHT22;14163;-26.142;27.992;2024-03-02T04:54:17;21.70;99.90
26479;DHT22;14163;-26.142;27.992;2024-03-02T04:56:46;21.70;99.90
26479;DHT22;14163;-26.142;27.992;2024-03-02T04:59:18;21.70;99.90
26479;DHT22;14163;-26.142;27.992;2024-03-02T05:01:47;21.70;99.90
26479;DHT22;14163;-26.142;27.992;2024-03-02T05:04:18;21.40;99.90
26479;DHT22;14163;-26.142;27.992;2024-03-02T05:06:47;21.40;99.90
26479;DHT22;14163;-26.142;27.992;2024-03-02T05:09:19;21.40;99.90
26479;DHT22;14163;-26.142;27.992;2024-03-02T05:11:48;21.40;99.90
26479;DHT22;14163;-26.142;27.992;2024-03-02T05:14:37;21.50;99.90
26479;DHT22;14163;-26.142;27.992;2024-03-02T05:17:06;21.70;99.90
26479;DHT22;14163;-26.142;27.992;2024-03-02T05:19:37;21.70;99.90
26479;DHT22;14163;-26.142;27.992;2024-03-02T05:22:06;21.60;99.90
26479;DHT22;14163;-26.142;27.992;2024-03-02T05:24:36;21.70;99.90
26479;DHT22;14163;-26.142;27.992;2024-03-02T05:27:05;21.80;99.90
26479;DHT22;14163;-26.142;27.992;2024-03-02T05:29:34;21.90;99.90
26479;DHT22;14163;-26.142;27.992;2024-03-02T05:32:04;22.10;99.90
26479;DHT22;14163;-26.142;27.992;2024-03-02T05:34:33;22.00;99.90
26479;DHT22;14163;-26.142;27.992;2024-03-02T05:37:04;21.80;99.90
26479;DHT22;14163;-26.142;27.992;2024-03-02T05:39:33;21.80;99.90
26479;DHT22;14163;-26.142;27.992;2024-03-02T05:42:02;22.00;99.90
26479;DHT22;14163;-26.142;27.992;2024-03-02T05:44:31;22.10;99.90
26479;DHT22;14163;-26.142;27.992;2024-03-02T05:47:00;22.00;99.90
26479;DHT22;14163;-26.142;27.992;2024-03-02T05:49:30;21.70;99.90
26479;DHT22;14163;-26.142;27.992;2024-03-02T05:51:59;21.40;99.90
26479;DHT22;14163;-26.142;27.992;2024-03-02T05:54:29;21.30;99.90
26479;DHT22;14163;-26.142;27.992;2024-03-02T05:56:59;21.60;99.90
26479;DHT22;14163;-26.142;27.992;2024-03-02T05:59:43;21.70;99.90
26479;DHT22;14163;-26.142;27.992;2024-03-02T06:02:12;21.60;99.90
26479;DHT22;14163;-26.142;27.992;2024-03-02T06:04:41;21.90;99.90
26479;DHT22;14163;-26.142;27.992;2024-03-02T06:07:09;21.90;99.90
26479;DHT22;14163;-26.142;27.992;2024-03-02T06:09:41;21.90;99.90
26479;DHT22;14163;-26.142;27.992;2024-03-02T06:12:11;22.20;99.90
26479;DHT22;14163;-26.142;27.992;2024-03-02T06:14:40;22.30;99.90
26479;DHT22;14163;-26.142;27.992;2024-03-02T06:17:09;22.20;99.90
26479;DHT22;14163;-26.142;27.992;2024-03-02T06:19:39;22.20;99.90
26479;DHT22;14163;-26.142;27.992;2024-03-02T06:22:08;22.20;99.90
26479;DHT22;14163;-26.142;27.992;2024-03-02T06:24:39;22.20;99.90
26479;DHT22;14163;-26.142;27.992;2024-03-02T06:27:09;22.20;99.90
26479;DHT22;14163;-26.142;27.992;2024-03-02T06:29:38;22.30;99.90
26479;DHT22;14163;-26.142;27.992;2024-03-02T06:32:07;22.30;99.90
26479;DHT22;14163;-26.142;27.992;2024-03-02T06:34:36;22.50;99.90
26479;DHT22;14163;-26.142;27.992;2024-03-02T06:37:06;22.70;99.90
26479;DHT22;14163;-26.142;27.992;2024-03-02T06:39:35;22.60;99.90
26479;DHT22;14163;-26.142;27.992;2024-03-02T06:42:05;22.50;99.90
26479;DHT22;14163;-26.142;27.992;2024-03-02T06:44:35;22.60;99.90
26479;DHT22;14163;-26.142;27.992;2024-03-02T06:47:04;22.60;99.90
26479;DHT22;14163;-26.142;27.992;2024-03-02T06:49:33;22.60;99.90
26479;DHT22;14163;-26.142;27.992;2024-03-02T06:52:03;22.60;99.90
26479;DHT22;14163;-26.142;27.992;2024-03-02T06:54:32;22.70;99.90
26479;DHT22;14163;-26.142;27.992;2024-03-02T06:57:01;22.70;99.90
26479;DHT22;14163;-26.142;27.992;2024-03-02T06:59:32;22.80;99.90
26479;DHT22;14163;-26.142;27.992;2024-03-02T07:02:01;22.80;99.90
26479;DHT22;14163;-26.142;27.992;2024-03-02T07:04:30;22.80;99.90
26479;DHT22;14163;-26.142;27.992;2024-03-02T07:06:59;22.80;99.90
26479;DHT22;14163;-26.142;27.992;2024-03-02T07:09:29;22.90;99.90
26479;DHT22;14163;-26.142;27.992;2024-03-02T07:11:58;22.90;99.90
26479;DHT22;14163;-26.142;27.992;2024-03-02T07:14:27;22.90;99.90
26479;DHT22;14163;-26.142;27.992;2024-03-02T07:17:11;23.00;99.90
26479;DHT22;14163;-26.142;27.992;2024-03-02T07:19:40;23.30;99.90
26479;DHT22;14163;-26.142;27.992;2024-03-02T07:22:09;23.30;99.90
26479;DHT22;14163;-26.142;27.992;2024-03-02T07:24:42;23.20;99.90
26479;DHT22;14163;-26.142;27.992;2024-03-02T07:27:11;23.40;99.90
26479;DHT22;14163;-26.142;27.992;2024-03-02T07:29:40;23.40;99.90
26479;DHT22;14163;-26.142;27.992;2024-03-02T07:32:11;23.30;99.90
26479;DHT22;14163;-26.142;27.992;2024-03-02T07:34:40;23.20;99.90
26479;DHT22;14163;-26.142;27.992;2024-03-02T07:37:09;23.30;99.90
26479;DHT22;14163;-26.142;27.992;2024-03-02T07:39:38;23.30;99.90
26479;DHT22;14163;-26.142;27.992;2024-03-02T07:42:07;23.50;99.90
26479;DHT22;14163;-26.142;27.992;2024-03-02T07:44:37;23.40;99.90
26479;DHT22;14163;-26.142;27.992;2024-03-02T07:47:07;23.40;99.90
26479;DHT22;14163;-26.142;27.992;2024-03-02T07:49:38;23.50;99.90
26479;DHT22;14163;-26.142;27.992;2024-03-02T07:52:07;23.60;99.90
26479;DHT22;14163;-26.142;27.992;2024-03-02T07:54:36;23.70;99.90
26479;DHT22;14163;-26.142;27.992;2024-03-02T07:57:05;23.70;99.90
26479;DHT22;14163;-26.142;27.992;2024-03-02T07:59:35;23.80;99.90
26479;DHT22;14163;-26.142;27.992;2024-03-02T08:02:04;23.90;99.90
26479;DHT22;14163;-26.142;27.992;2024-03-02T08:04:33;23.90;99.90
26479;DHT22;14163;-26.142;27.992;2024-03-02T08:07:05;24.00;99.90
26479;DHT22;14163;-26.142;27.992;2024-03-02T08:09:36;24.30;99.90
26479;DHT22;14163;-26.142;27.992;2024-03-02T08:12:05;24.50;99.90
26479;DHT22;14163;-26.142;27.992;2024-03-02T08:14:35;24.50;99.90
26479;DHT22;14163;-26.142;27.992;2024-03-02T08:17:04;24.70;99.90
26479;DHT22;14163;-26.142;27.992;2024-03-02T08:19:37;24.70;99.90
26479;DHT22;14163;-26.142;27.992;2024-03-02T08:22:08;24.70;99.90
26479;DHT22;14163;-26.142;27.992;2024-03-02T08:24:37;24.70;99.90
26479;DHT22;14163;-26.142;27.992;2024-03-02T08:27:06;24.80;99.90
26479;DHT22;14163;-26.142;27.992;2024-03-02T08:29:36;24.70;99.90
26479;DHT22;14163;-26.142;27.992;2024-03-02T08:32:06;24.70;99.90
26479;DHT22;14163;-26.142;27.992;2024-03-02T08:34:35;24.80;99.90
26479;DHT22;14163;-26.142;27.992;2024-03-02T08:37:06;25.00;99.90
26479;DHT22;14163;-26.142;27.992;2024-03-02T08:39:35;25.00;99.90
26479;DHT22;14163;-26.142;27.992;2024-03-02T08:42:04;25.10;99.90
26479;DHT22;14163;-26.142;27.992;2024-03-02T08:44:33;25.20;99.90
26479;DHT22;14163;-26.142;27.992;2024-03-02T08:47:03;25.20;99.90
26479;DHT22;14163;-26.142;27.992;2024-03-02T08:49:32;25.40;99.90
26479;DHT22;14163;-26.142;27.992;2024-03-02T08:52:01;25.50;99.90
26479;DHT22;14163;-26.142;27.992;2024-03-02T08:54:32;25.60;99.90
26479;DHT22;14163;-26.142;27.992;2024-03-02T08:57:02;25.80;99.90
26479;DHT22;14163;-26.142;27.992;2024-03-02T08:59:31;25.80;99.90
26479;DHT22;14163;-26.142;27.992;2024-03-02T09:02:00;25.80;99.90
26479;DHT22;14163;-26.142;27.992;2024-03-02T09:04:30;25.90;99.90
26479;DHT22;14163;-26.142;27.992;2024-03-02T09:06:59;25.90;99.90
26479;DHT22;14163;-26.142;27.992;2024-03-02T09:09:28;25.80;99.90
26479;DHT22;14163;-26.142;27.992;2024-03-02T09:12:00;26.00;99.90
26479;DHT22;14163;-26.142;27.992;2024-03-02T09:14:29;26.10;99.90
26479;DHT22;14163;-26.142;27.992;2024-03-02T09:16:58;26.00;99.90
26479;DHT22;14163;-26.142;27.992;2024-03-02T09:19:27;26.20;99.90
26479;DHT22;14163;-26.142;27.992;2024-03-02T09:21:57;26.10;99.90
26479;DHT22;14163;-26.142;27.992;2024-03-02T09:24:26;25.90;99.90
26479;DHT22;14163;-26.142;27.992;2024-03-02T09:26:55;25.90;99.90
26479;DHT22;14163;-26.142;27.992;2024-03-02T09:29:26;26.10;99.90
26479;DHT22;14163;-26.142;27.992;2024-03-02T09:31:55;26.30;99.90
26479;DHT22;14163;-26.142;27.992;2024-03-02T09:34:24;26.50;99.90
26479;DHT22;14163;-26.142;27.992;2024-03-02T09:36:53;26.70;99.90
26479;DHT22;14163;-26.142;27.992;2024-03-02T09:39:22;26.60;99.90
26479;DHT22;14163;-26.142;27.992;2024-03-02T09:41:52;26.70;99.90
26479;DHT22;14163;-26.142;27.992;2024-03-02T09:44:22;26.80;99.90
26479;DHT22;14163;-26.142;27.992;2024-03-02T09:46:53;26.70;99.90
26479;DHT22;14163;-26.142;27.992;2024-03-02T09:49:22;26.90;99.90
26479;DHT22;14163;-26.142;27.992;2024-03-02T09:51:51;26.80;99.90
26479;DHT22;14163;-26.142;27.992;2024-03-02T09:54:21;27.00;99.90
26479;DHT22;14163;-26.142;27.992;2024-03-02T09:56:51;27.20;99.90
26479;DHT22;14163;-26.142;27.992;2024-03-02T09:59:20;27.20;99.90
26479;DHT22;14163;-26.142;27.992;2024-03-02T10:02:01;27.30;99.90
26479;DHT22;14163;-26.142;27.992;2024-03-02T10:04:31;27.50;99.90
26479;DHT22;14163;-26.142;27.992;2024-03-02T10:07:17;27.60;99.90
26479;DHT22;14163;-26.142;27.992;2024-03-02T10:09:48;27.90;99.90
26479;DHT22;14163;-26.142;27.992;2024-03-02T10:12:19;28.00;99.90
26479;DHT22;14163;-26.142;27.992;2024-03-02T10:14:49;28.10;99.90
26479;DHT22;14163;-26.142;27.992;2024-03-02T10:17:21;28.10;99.90
26479;DHT22;14163;-26.142;27.992;2024-03-02T10:19:50;28.00;99.90
26479;DHT22;14163;-26.142;27.992;2024-03-02T10:22:19;28.10;99.90
26479;DHT22;14163;-26.142;27.992;2024-03-02T10:24:53;28.20;99.90
26479;DHT22;14163;-26.142;27.992;2024-03-02T10:27:26;28.40;99.90
26479;DHT22;14163;-26.142;27.992;2024-03-02T10:29:56;28.40;99.90
26479;DHT22;14163;-26.142;27.992;2024-03-02T10:32:27;28.50;99.90
26479;DHT22;14163;-26.142;27.992;2024-03-02T10:34:56;28.70;99.90
26479;DHT22;14163;-26.142;27.992;2024-03-02T10:37:26;28.90;99.90
26479;DHT22;14163;-26.142;27.992;2024-03-02T10:39:55;29.20;99.90
26479;DHT22;14163;-26.142;27.992;2024-03-02T10:42:25;29.10;99.90
26479;DHT22;14163;-26.142;27.992;2024-03-02T10:44:54;29.10;99.90
26479;DHT22;14163;-26.142;27.992;2024-03-02T10:47:27;29.30;99.90
26479;DHT22;14163;-26.142;27.992;2024-03-02T10:50:00;29.50;99.90
26479;DHT22;14163;-26.142;27.992;2024-03-02T10:52:30;29.50;99.90
26479;DHT22;14163;-26.142;27.992;2024-03-02T10:54:59;29.40;99.90
26479;DHT22;14163;-26.142;27.992;2024-03-02T10:57:36;29.10;99.90
26479;DHT22;14163;-26.142;27.992;2024-03-02T11:00:12;29.00;99.90
26479;DHT22;14163;-26.142;27.992;2024-03-02T11:02:51;29.00;99.90
26479;DHT22;14163;-26.142;27.992;2024-03-02T11:05:26;29.10;99.90
26479;DHT22;14163;-26.142;27.992;2024-03-02T11:08:01;29.30;99.90
26479;DHT22;14163;-26.142;27.992;2024-03-02T11:10:35;29.50;99.90
26479;DHT22;14163;-26.142;27.992;2024-03-02T11:13:08;29.70;99.90
26479;DHT22;14163;-26.142;27.992;2024-03-02T11:15:37;29.90;99.60
26479;DHT22;14163;-26.142;27.992;2024-03-02T11:18:14;30.20;98.80
26479;DHT22;14163;-26.142;27.992;2024-03-02T11:20:44;30.30;97.80
26479;DHT22;14163;-26.142;27.992;2024-03-02T11:23:13;30.40;97.10
26479;DHT22;14163;-26.142;27.992;2024-03-02T11:25:42;30.40;97.40
26479;DHT22;14163;-26.142;27.992;2024-03-02T11:28:11;30.30;97.20
26479;DHT22;14163;-26.142;27.992;2024-03-02T11:30:55;30.30;96.90
26479;DHT22;14163;-26.142;27.992;2024-03-02T11:33:26;30.40;96.40
26479;DHT22;14163;-26.142;27.992;2024-03-02T11:35:58;31.40;96.70
26479;DHT22;14163;-26.142;27.992;2024-03-02T11:38:34;32.70;94.60
26479;DHT22;14163;-26.142;27.992;2024-03-02T11:41:06;34.10;91.40
26479;DHT22;14163;-26.142;27.992;2024-03-02T11:43:38;35.20;87.70
26479;DHT22;14163;-26.142;27.992;2024-03-02T11:46:07;36.40;82.50
26479;DHT22;14163;-26.142;27.992;2024-03-02T11:48:39;37.40;78.10
26479;DHT22;14163;-26.142;27.992;2024-03-02T11:51:08;38.30;73.20
26479;DHT22;14163;-26.142;27.992;2024-03-02T11:53:39;39.00;67.90
26479;DHT22;14163;-26.142;27.992;2024-03-02T11:56:10;39.40;66.80
26479;DHT22;14163;-26.142;27.992;2024-03-02T11:58:41;39.80;64.50
26479;DHT22;14163;-26.142;27.992;2024-03-02T12:01:11;40.30;61.40
26479;DHT22;14163;-26.142;27.992;2024-03-02T12:03:43;40.80;59.10
26479;DHT22;14163;-26.142;27.992;2024-03-02T12:06:12;41.20;57.60
26479;DHT22;14163;-26.142;27.992;2024-03-02T12:08:42;41.30;56.50
26479;DHT22;14163;-26.142;27.992;2024-03-02T12:11:14;40.60;56.00
26479;DHT22;14163;-26.142;27.992;2024-03-02T12:13:52;39.40;57.50
26479;DHT22;14163;-26.142;27.992;2024-03-02T12:16:25;38.50;59.10
26479;DHT22;14163;-26.142;27.992;2024-03-02T12:18:55;38.60;58.80
26479;DHT22;14163;-26.142;27.992;2024-03-02T12:21:25;39.10;58.60
26479;DHT22;14163;-26.142;27.992;2024-03-02T12:23:54;39.60;58.10
26479;DHT22;14163;-26.142;27.992;2024-03-02T12:26:23;39.90;57.40
26479;DHT22;14163;-26.142;27.992;2024-03-02T12:28:52;39.90;55.70
26479;DHT22;14163;-26.142;27.992;2024-03-02T12:31:21;39.20;56.70
26479;DHT22;14163;-26.142;27.992;2024-03-02T12:33:51;38.30;57.20
26479;DHT22;14163;-26.142;27.992;2024-03-02T12:36:22;37.90;57.00
26479;DHT22;14163;-26.142;27.992;2024-03-02T12:38:53;37.50;57.50
26479;DHT22;14163;-26.142;27.992;2024-03-02T12:41:23;37.00;58.10
26479;DHT22;14163;-26.142;27.992;2024-03-02T12:43:52;36.60;58.80
26479;DHT22;14163;-26.142;27.992;2024-03-02T12:46:22;36.00;59.10
26479;DHT22;14163;-26.142;27.992;2024-03-02T12:48:52;35.60;59.60
26479;DHT22;14163;-26.142;27.992;2024-03-02T12:51:23;35.40;60.60
26479;DHT22;14163;-26.142;27.992;2024-03-02T12:53:54;35.40;59.70
26479;DHT22;14163;-26.142;27.992;2024-03-02T12:56:24;35.10;59.00
26479;DHT22;14163;-26.142;27.992;2024-03-02T12:58:54;35.00;60.80
26479;DHT22;14163;-26.142;27.992;2024-03-02T13:01:24;34.90;60.70
26479;DHT22;14163;-26.142;27.992;2024-03-02T13:03:53;34.80;59.10
26479;DHT22;14163;-26.142;27.992;2024-03-02T13:06:26;34.70;59.70
26479;DHT22;14163;-26.142;27.992;2024-03-02T13:08:56;34.90;60.50
26479;DHT22;14163;-26.142;27.992;2024-03-02T13:11:25;34.70;61.40
26479;DHT22;14163;-26.142;27.992;2024-03-02T13:13:55;34.50;62.10
26479;DHT22;14163;-26.142;27.992;2024-03-02T13:16:24;34.40;62.30
26479;DHT22;14163;-26.142;27.992;2024-03-02T13:18:53;34.30;62.60
26479;DHT22;14163;-26.142;27.992;2024-03-02T13:21:22;34.30;62.00
26479;DHT22;14163;-26.142;27.992;2024-03-02T13:23:53;34.20;61.20
26479;DHT22;14163;-26.142;27.992;2024-03-02T13:26:22;34.50;60.10
26479;DHT22;14163;-26.142;27.992;2024-03-02T13:28:51;34.70;59.50
26479;DHT22;14163;-26.142;27.992;2024-03-02T13:31:20;34.90;60.20
26479;DHT22;14163;-26.142;27.992;2024-03-02T13:33:49;35.10;61.00
26479;DHT22;14163;-26.142;27.992;2024-03-02T13:36:18;35.10;60.10
26479;DHT22;14163;-26.142;27.992;2024-03-02T13:38:47;34.90;60.00
26479;DHT22;14163;-26.142;27.992;2024-03-02T13:41:18;34.80;59.60
26479;DHT22;14163;-26.142;27.992;2024-03-02T13:43:47;34.80;59.60
26479;DHT22;14163;-26.142;27.992;2024-03-02T13:46:17;34.60;59.20
26479;DHT22;14163;-26.142;27.992;2024-03-02T13:48:46;34.60;60.20
26479;DHT22;14163;-26.142;27.992;2024-03-02T13:51:15;34.50;60.00
26479;DHT22;14163;-26.142;27.992;2024-03-02T13:53:44;34.30;61.10
26479;DHT22;14163;-26.142;27.992;2024-03-02T13:56:13;33.80;63.10
26479;DHT22;14163;-26.142;27.992;2024-03-02T13:58:45;33.40;64.30
26479;DHT22;14163;-26.142;27.992;2024-03-02T14:01:14;33.30;64.70
26479;DHT22;14163;-26.142;27.992;2024-03-02T14:03:43;33.10;64.70
26479;DHT22;14163;-26.142;27.992;2024-03-02T14:06:13;32.80;64.70
26479;DHT22;14163;-26.142;27.992;2024-03-02T14:08:42;32.50;67.10
26479;DHT22;14163;-26.142;27.992;2024-03-02T14:11:12;32.10;71.20
26479;DHT22;14163;-26.142;27.992;2024-03-02T14:13:45;31.70;83.50
26479;DHT22;14163;-26.142;27.992;2024-03-02T14:16:20;31.20;89.30
26479;DHT22;14163;-26.142;27.992;2024-03-02T14:18:49;30.90;93.10
26479;DHT22;14163;-26.142;27.992;2024-03-02T14:21:18;30.60;95.90
26479;DHT22;14163;-26.142;27.992;2024-03-02T14:23:47;30.30;99.90
26479;DHT22;14163;-26.142;27.992;2024-03-02T14:26:16;30.00;99.90
26479;DHT22;14163;-26.142;27.992;2024-03-02T14:28:48;29.80;99.90
26479;DHT22;14163;-26.142;27.992;2024-03-02T14:31:17;29.70;99.90
26479;DHT22;14163;-26.142;27.992;2024-03-02T14:33:46;29.80;99.90
26479;DHT22;14163;-26.142;27.992;2024-03-02T14:36:16;29.80;99.90
26479;DHT22;14163;-26.142;27.992;2024-03-02T14:38:45;29.90;99.90
26479;DHT22;14163;-26.142;27.992;2024-03-02T14:41:15;30.10;99.90
26479;DHT22;14163;-26.142;27.992;2024-03-02T14:43:44;30.40;99.90
26479;DHT22;14163;-26.142;27.992;2024-03-02T14:46:14;30.50;99.90
26479;DHT22;14163;-26.142;27.992;2024-03-02T14:48:44;30.70;99.90
26479;DHT22;14163;-26.142;27.992;2024-03-02T14:51:14;30.70;99.90
26479;DHT22;14163;-26.142;27.992;2024-03-02T14:53:43;30.70;99.90
26479;DHT22;14163;-26.142;27.992;2024-03-02T14:56:12;30.60;99.90
26479;DHT22;14163;-26.142;27.992;2024-03-02T14:58:42;30.50;99.90
26479;DHT22;14163;-26.142;27.992;2024-03-02T15:01:13;30.50;99.90
26479;DHT22;14163;-26.142;27.992;2024-03-02T15:03:42;30.50;99.90
26479;DHT22;14163;-26.142;27.992;2024-03-02T15:06:11;30.50;99.90
26479;DHT22;14163;-26.142;27.992;2024-03-02T15:08:40;30.40;99.90
26479;DHT22;14163;-26.142;27.992;2024-03-02T15:11:10;30.30;99.90
26479;DHT22;14163;-26.142;27.992;2024-03-02T15:13:39;30.20;99.90
26479;DHT22;14163;-26.142;27.992;2024-03-02T15:16:08;30.30;99.90
26479;DHT22;14163;-26.142;27.992;2024-03-02T15:18:39;30.20;99.90
26479;DHT22;14163;-26.142;27.992;2024-03-02T15:21:08;30.40;99.90